createdAt,value
2018-07-14T00:01:24.041Z,100525.00
2018-07-14T00:06:27.091Z,100508.00
2018-07-14T00:11:30.425Z,100507.00
2018-07-14T00:16:33.580Z,100505.00
2018-07-14T00:21:36.876Z,100504.00
2018-07-14T00:26:39.862Z,100504.00
2018-07-14T00:31:42.892Z,100506.00
2018-07-14T00:36:46.094Z,100501.00
2018-07-14T00:41:49.436Z,100508.00
2018-07-14T00:46:52.469Z,100514.00
2018-07-14T00:51:55.436Z,100512.00
2018-07-14T00:56:58.425Z,100510.00
2018-07-14T01:02:01.440Z,100511.00
2018-07-14T01:07:04.463Z,100507.00
2018-07-14T01:12:07.516Z,100510.00
2018-07-14T01:17:10.626Z,100515.00
2018-07-14T01:22:13.840Z,100516.00
2018-07-14T01:27:17.055Z,100516.00
2018-07-14T01:32:20.356Z,100515.00
2018-07-14T01:37:23.376Z,100512.00
2018-07-14T01:42:26.463Z,100516.00
2018-07-14T01:47:29.631Z,100511.00
2018-07-14T01:52:32.631Z,100509.00
2018-07-14T01:57:35.884Z,100507.00
2018-07-14T02:02:38.919Z,100509.00
2018-07-14T02:07:41.971Z,100507.00
2018-07-14T02:12:45.003Z,100509.00
2018-07-14T02:17:48.493Z,100507.00
2018-07-14T02:22:51.937Z,100512.00
2018-07-14T02:27:54.947Z,100514.00
2018-07-14T02:32:57.960Z,100518.00
2018-07-14T02:38:01.137Z,100515.00
2018-07-14T02:43:04.352Z,100517.00
2018-07-14T02:48:08.282Z,100529.00
2018-07-14T02:53:11.301Z,100514.00
2018-07-14T02:58:14.388Z,100520.00
2018-07-14T03:03:17.420Z,100521.00
2018-07-14T03:08:20.671Z,100519.00
2018-07-14T03:13:23.665Z,100524.00
2018-07-14T03:18:26.650Z,100527.00
2018-07-14T03:23:29.637Z,100522.00
2018-07-14T03:28:32.655Z,100527.00
2018-07-14T03:33:35.657Z,100526.00
2018-07-14T03:38:38.827Z,100523.00
2018-07-14T03:43:41.788Z,100530.00
2018-07-14T03:48:44.804Z,100524.00
2018-07-14T03:53:47.868Z,100528.00
2018-07-14T03:58:51.769Z,100537.00
2018-07-14T04:03:54.782Z,100534.00
2018-07-14T04:08:57.969Z,100530.00
2018-07-14T04:14:01.113Z,100533.00
2018-07-14T04:19:04.139Z,100534.00
2018-07-14T04:24:07.190Z,100531.00
2018-07-14T04:29:10.922Z,100525.00
2018-07-14T04:34:13.953Z,100530.00
2018-07-14T04:39:16.970Z,100530.00
2018-07-14T04:44:19.971Z,100525.00
2018-07-14T04:49:23.282Z,100533.00
2018-07-14T04:54:26.451Z,100542.00
2018-07-14T04:59:29.654Z,100547.00
2018-07-14T05:04:32.887Z,100558.00
2018-07-14T05:09:35.863Z,100560.00
2018-07-14T05:14:38.882Z,100549.00
2018-07-14T05:19:41.894Z,100558.00
2018-07-14T05:24:45.185Z,100556.00
2018-07-14T05:29:48.236Z,100546.00
2018-07-14T05:34:51.402Z,100539.00
2018-07-14T05:39:54.433Z,100545.00
2018-07-14T05:44:57.709Z,100547.00
2018-07-14T05:50:00.702Z,100566.00
2018-07-14T05:55:04.298Z,100568.00
2018-07-14T06:00:08.422Z,100564.00
2018-07-14T06:05:11.685Z,100570.00
2018-07-14T06:10:14.907Z,100575.00
2018-07-14T06:15:17.879Z,100562.00
2018-07-14T06:20:20.865Z,100566.00
2018-07-14T06:25:24.083Z,100579.00
2018-07-14T06:30:27.415Z,100587.00
2018-07-14T06:35:30.757Z,100599.00
2018-07-14T06:40:40.733Z,100582.00
2018-07-14T06:45:43.752Z,100591.00
2018-07-14T06:50:47.034Z,100599.00
2018-07-14T06:55:50.520Z,100582.00
2018-07-14T07:00:53.965Z,100597.00
2018-07-14T07:05:57.260Z,100615.00
2018-07-14T07:11:00.288Z,100606.00
2018-07-14T07:16:03.275Z,100615.00
2018-07-14T07:21:06.566Z,100619.00
2018-07-14T07:26:09.671Z,100617.00
2018-07-14T07:31:12.879Z,100624.00
2018-07-14T07:36:16.105Z,100613.00
2018-07-14T07:41:19.308Z,100621.00
2018-07-14T07:46:22.287Z,100613.00
2018-07-14T07:51:25.372Z,100609.00
2018-07-14T07:56:28.414Z,100617.00
2018-07-14T08:01:31.527Z,100606.00
2018-07-14T08:06:34.730Z,100621.00
2018-07-14T08:11:37.762Z,100620.00
2018-07-14T08:16:40.764Z,100616.00
2018-07-14T08:21:43.814Z,100612.00
2018-07-14T08:26:46.919Z,100615.00
2018-07-14T08:31:50.679Z,100616.00
2018-07-14T08:36:53.814Z,100614.00
2018-07-14T08:41:56.833Z,100614.00
2018-07-14T08:47:00.092Z,100607.00
2018-07-14T08:52:03.130Z,100602.00
2018-07-14T08:57:06.224Z,100603.00
2018-07-14T09:02:09.523Z,100607.00
2018-07-14T09:07:12.571Z,100597.00
2018-07-14T09:12:15.688Z,100598.00
2018-07-14T09:17:18.745Z,100595.00
2018-07-14T09:22:21.892Z,100594.00
2018-07-14T09:27:24.947Z,100583.00
2018-07-14T09:32:28.027Z,100589.00
2018-07-14T09:37:31.074Z,100574.00
2018-07-14T09:42:34.168Z,100586.00
2018-07-14T09:47:37.185Z,100580.00
2018-07-14T09:52:40.394Z,100578.00
2018-07-14T09:57:43.735Z,100575.00
2018-07-14T10:02:47.220Z,100582.00
2018-07-14T10:07:50.393Z,100566.00
2018-07-14T10:12:53.663Z,100568.00
2018-07-14T10:17:56.831Z,100576.00
2018-07-14T10:23:00.244Z,100572.00
2018-07-14T10:28:03.448Z,100569.00
2018-07-14T10:33:06.570Z,100556.00
2018-07-14T10:38:09.648Z,100546.00
2018-07-14T10:43:12.636Z,100544.00
2018-07-14T10:48:15.749Z,100540.00
2018-07-14T10:53:18.881Z,100539.00
2018-07-14T10:58:21.900Z,100537.00
2018-07-14T11:03:24.949Z,100525.00
2018-07-14T11:08:28.075Z,100512.00
2018-07-14T11:13:31.887Z,100516.00
2018-07-14T11:18:35.138Z,100518.00
2018-07-14T11:23:38.383Z,100510.00
2018-07-14T11:28:41.429Z,100517.00
2018-07-14T11:33:44.769Z,100506.00
2018-07-14T11:38:47.808Z,100494.00
2018-07-14T11:43:50.774Z,100491.00
2018-07-14T11:48:53.770Z,100488.00
2018-07-14T11:53:56.855Z,100484.00
2018-07-14T11:58:59.902Z,100484.00
2018-07-14T12:04:02.944Z,100479.00
2018-07-14T12:09:06.577Z,100474.00
2018-07-14T12:14:09.669Z,100479.00
2018-07-14T12:19:12.695Z,100469.00
2018-07-14T12:24:15.795Z,100465.00
2018-07-14T12:29:19.027Z,100456.00
2018-07-14T12:34:22.266Z,100453.00
2018-07-14T12:39:25.372Z,100449.00
2018-07-14T12:44:28.403Z,100435.00
2018-07-14T12:49:31.416Z,100427.00
2018-07-14T12:54:34.484Z,100436.00
2018-07-14T12:59:37.770Z,100432.00
2018-07-14T13:04:40.835Z,100422.00
2018-07-14T13:09:43.879Z,100415.00
2018-07-14T13:14:46.940Z,100420.00
2018-07-14T13:19:50.195Z,100419.00
2018-07-14T13:24:53.253Z,100416.00
2018-07-14T13:29:56.324Z,100408.00
2018-07-14T13:34:59.437Z,100404.00
2018-07-14T13:40:02.606Z,100405.00
2018-07-14T13:45:05.943Z,100397.00
2018-07-14T13:50:09.559Z,100392.00
2018-07-14T13:55:12.638Z,100386.00
2018-07-14T14:00:15.696Z,100385.00
2018-07-14T14:05:18.980Z,100393.00
2018-07-14T14:10:22.334Z,100387.00
2018-07-14T14:15:25.381Z,100385.00
2018-07-14T14:20:28.560Z,100382.00
2018-07-14T14:25:31.635Z,100375.00
2018-07-14T14:30:34.995Z,100374.00
2018-07-14T14:35:38.060Z,100375.00
2018-07-14T14:40:41.096Z,100372.00
2018-07-14T14:45:44.112Z,100370.00
2018-07-14T14:50:47.301Z,100366.00
2018-07-14T14:55:50.555Z,100359.00
2018-07-14T15:00:53.716Z,100350.00
2018-07-14T15:05:56.788Z,100345.00
2018-07-14T15:10:59.849Z,100347.00
2018-07-14T15:16:03.174Z,100348.00
2018-07-14T15:21:06.657Z,100343.00
2018-07-14T15:26:09.767Z,100335.00
2018-07-14T15:31:13.095Z,100336.00
2018-07-14T15:36:16.595Z,100330.00
2018-07-14T15:41:19.956Z,100334.00
2018-07-14T15:46:23.029Z,100335.00
2018-07-14T15:51:26.340Z,100323.00
2018-07-14T15:56:29.680Z,100333.00
2018-07-14T16:01:33.015Z,100332.00
2018-07-14T16:06:35.947Z,100332.00
2018-07-14T16:11:39.070Z,100333.00
2018-07-14T16:16:42.036Z,100336.00
2018-07-14T16:21:44.983Z,100319.00
2018-07-14T16:26:47.960Z,100318.00
2018-07-14T16:31:51.064Z,100314.00
2018-07-14T16:36:54.026Z,100309.00
2018-07-14T16:41:57.055Z,100288.00
2018-07-14T16:47:00.037Z,100285.00
2018-07-14T16:52:03.072Z,100286.00
2018-07-14T16:57:06.020Z,100288.00
2018-07-14T17:02:09.202Z,100276.00
2018-07-14T17:07:12.085Z,100271.00
2018-07-14T17:12:15.200Z,100269.00
2018-07-14T17:17:18.424Z,100274.00
2018-07-14T17:22:21.524Z,100274.00
2018-07-14T17:27:24.563Z,100269.00
2018-07-14T17:32:27.626Z,100270.00
2018-07-14T17:37:31.177Z,100267.00
2018-07-14T17:42:34.601Z,100270.00
2018-07-14T17:47:37.636Z,100271.00
2018-07-14T17:52:40.689Z,100274.00
2018-07-14T17:57:43.970Z,100269.00
2018-07-14T18:02:47.197Z,100269.00
2018-07-14T18:07:50.497Z,100259.00
2018-07-14T18:12:53.666Z,100254.00
2018-07-14T18:17:56.828Z,100253.00
2018-07-14T18:22:59.868Z,100249.00
2018-07-14T18:28:03.172Z,100255.00
2018-07-14T18:33:07.668Z,100254.00
2018-07-14T18:38:11.804Z,100252.00
2018-07-14T18:43:16.467Z,100246.00
2018-07-14T18:48:19.517Z,100247.00
2018-07-14T18:53:23.837Z,100239.00
2018-07-14T18:58:26.860Z,100249.00
2018-07-14T19:03:29.990Z,100243.00
2018-07-14T19:08:33.453Z,100248.00
2018-07-14T19:13:36.537Z,100253.00
2018-07-14T19:18:39.722Z,100251.00
2018-07-14T19:23:42.785Z,100246.00
2018-07-14T19:28:46.062Z,100241.00
2018-07-14T19:33:49.095Z,100241.00
2018-07-14T19:38:52.160Z,100244.00
2018-07-14T19:43:55.452Z,100262.00
2018-07-14T19:48:59.040Z,100260.00
2018-07-14T19:54:02.140Z,100259.00
2018-07-14T19:59:05.870Z,100255.00
2018-07-14T20:04:09.014Z,100269.00
2018-07-14T20:09:12.365Z,100257.00
2018-07-14T20:14:15.472Z,100267.00
2018-07-14T20:19:18.712Z,100275.00
2018-07-14T20:24:21.783Z,100270.00
2018-07-14T20:29:25.079Z,100279.00
2018-07-14T20:34:28.278Z,100282.00
2018-07-14T20:39:31.480Z,100287.00
2018-07-14T20:44:35.408Z,100288.00
2018-07-14T20:49:38.458Z,100290.00
2018-07-14T20:54:41.746Z,100294.00
2018-07-14T20:59:45.266Z,100297.00
2018-07-14T21:04:48.289Z,100302.00
2018-07-14T21:09:51.392Z,100298.00
2018-07-14T21:14:55.146Z,100298.00
2018-07-14T21:19:58.586Z,100290.00
2018-07-14T21:25:01.811Z,100296.00
2018-07-14T21:30:04.983Z,100290.00
2018-07-14T21:35:08.142Z,100290.00
2018-07-14T21:40:11.217Z,100300.00
2018-07-14T21:45:15.008Z,100303.00
2018-07-14T21:50:18.179Z,100306.00
2018-07-14T21:55:21.238Z,100310.00
2018-07-14T22:00:33.137Z,100308.00
2018-07-14T22:05:36.451Z,100304.00
2018-07-14T22:10:39.490Z,100311.00
2018-07-14T22:15:42.802Z,100315.00
2018-07-14T22:20:46.099Z,100316.00
2018-07-14T22:25:49.289Z,100301.00
2018-07-14T22:30:52.335Z,100303.00
2018-07-14T22:35:55.427Z,100304.00
2018-07-14T22:40:58.480Z,100310.00
2018-07-14T22:46:01.518Z,100303.00
2018-07-14T22:51:04.843Z,100308.00
2018-07-14T22:56:07.920Z,100305.00
2018-07-14T23:01:10.948Z,100316.00
2018-07-14T23:06:14.172Z,100308.00
2018-07-14T23:11:17.280Z,100312.00
2018-07-14T23:16:20.336Z,100308.00
2018-07-14T23:21:23.585Z,100321.00
2018-07-14T23:26:26.641Z,100318.00
2018-07-14T23:31:29.730Z,100309.00
2018-07-14T23:36:32.724Z,100310.00
2018-07-14T23:41:36.621Z,100308.00
2018-07-14T23:46:39.652Z,100312.00
2018-07-14T23:51:42.710Z,100310.00
2018-07-14T23:56:45.711Z,100306.00
